Time;durP1;ratioP1;P1;durP2;ratioP2;P2;SDS_P1;SDS_P2;PMS_P1;PMS_P2;Temp;Humidity;BMP_temperature;BMP_pressure;BME280_temperature;BME280_humidity;BME280_pressure;Samples;Min_cycle;Max_cycle;Signal;HPM_P1;HPM_P2
2023/01/11 00:01:57;;;;;;;4.57;1.92;;;;;;;5.74;47.31;98889.53;5022450;28;20029;-63
2023/01/11 00:04:28;;;;;;;5.15;1.95;;;;;;;5.69;47.10;98876.94;5040225;28;20040;-64
2023/01/11 00:06:55;;;;;;;5.22;1.60;;;;;;;5.78;47.04;98880.63;5045860;28;20490;-64
2023/01/11 00:09:21;;;;;;;4.75;1.88;;;;;;;5.74;47.26;98876.63;5030678;28;20119;-63
2023/01/11 00:11:46;;;;;;;5.25;1.90;;;;;;;5.68;48.02;98880.47;5044390;28;20718;-63
2023/01/11 00:14:13;;;;;;;4.85;2.00;;;;;;;5.59;48.20;98886.25;5028502;28;20036;-65
2023/01/11 00:16:38;;;;;;;5.20;1.92;;;;;;;5.61;48.77;98892.13;5028930;28;20036;-64
2023/01/11 00:19:05;;;;;;;5.28;2.30;;;;;;;5.54;48.23;98888.31;5026262;28;20029;-64
2023/01/11 00:21:30;;;;;;;3.80;1.65;;;;;;;5.62;47.75;98900.69;5031184;28;20051;-64
2023/01/11 00:23:56;;;;;;;4.47;1.80;;;;;;;5.57;47.73;98891.50;5049338;28;20072;-64
2023/01/11 00:26:23;;;;;;;4.38;1.58;;;;;;;5.61;47.25;98891.31;5029326;28;20043;-65
2023/01/11 00:28:49;;;;;;;5.20;1.85;;;;;;;5.63;46.99;98884.28;5047619;28;20044;-64
2023/01/11 00:31:15;;;;;;;4.90;1.60;;;;;;;5.66;46.78;98889.22;5044877;28;20056;-63
2023/01/11 00:33:40;;;;;;;4.45;1.50;;;;;;;5.59;47.87;98876.75;5047131;28;20028;-62
2023/01/11 00:36:06;;;;;;;4.68;1.70;;;;;;;5.49;48.31;98867.19;5029101;28;20079;-63
2023/01/11 00:38:45;;;;;;;4.72;1.67;;;;;;;5.14;48.53;98826.59;5045574;28;20058;-62
2023/01/11 00:49:27;;;;;;;3.92;1.42;;;;;;;5.51;49.14;98866.16;5050643;28;20123;-64
2023/01/11 00:51:53;;;;;;;5.07;1.73;;;;;;;5.49;49.05;98873.16;5047045;28;20111;-63
2023/01/11 00:54:19;;;;;;;4.07;1.42;;;;;;;5.22;49.24;98831.22;5027129;28;20108;-63
2023/01/11 00:56:44;;;;;;;3.60;1.33;;;;;;;5.57;49.34;98875.22;5018890;28;20123;-66
2023/01/11 00:59:10;;;;;;;4.90;1.70;;;;;;;5.48;48.91;98874.09;5018692;28;20043;-64
2023/01/11 01:01:35;;;;;;;4.05;1.52;;;;;;;5.43;48.95;98873.59;5009886;28;20059;-63
2023/01/11 01:04:02;;;;;;;3.35;1.33;;;;;;;5.54;48.69;98870.28;5022261;28;20025;-65
2023/01/11 01:06:28;;;;;;;4.22;1.52;;;;;;;5.49;48.99;98868.00;5019616;28;20151;-63
2023/01/11 01:08:54;;;;;;;4.85;1.52;;;;;;;5.40;49.38;98860.88;5023484;28;20152;-65
2023/01/11 01:11:20;;;;;;;4.32;1.60;;;;;;;5.42;50.06;98863.38;5011950;28;20037;-63
2023/01/11 01:16:31;;;;;;;4.78;1.60;;;;;;;5.07;51.21;98820.22;5028202;28;20111;-67
2023/01/11 01:18:57;;;;;;;4.18;1.40;;;;;;;5.35;50.59;98868.16;5024859;28;20025;-66
2023/01/11 01:21:23;;;;;;;5.50;1.60;;;;;;;5.30;50.61;98859.91;5024915;28;20033;-66
2023/01/11 01:23:56;;;;;;;5.35;1.73;;;;;;;5.26;51.30;98866.19;5025680;28;20150;-64
2023/01/11 01:26:22;;;;;;;3.92;1.52;;;;;;;5.32;50.51;98870.91;5007661;28;20032;-65
2023/01/11 01:28:49;;;;;;;4.47;1.40;;;;;;;5.33;51.13;98869.97;5025928;28;20029;-65
2023/01/11 01:31:15;;;;;;;4.68;1.60;;;;;;;5.27;51.66;98854.94;5023154;28;20021;-65
2023/01/11 01:33:40;;;;;;;4.40;1.42;;;;;;;5.25;51.91;98852.47;5018446;28;20487;-64
2023/01/11 01:36:06;;;;;;;3.90;1.40;;;;;;;5.22;51.25;98864.72;5021408;28;20033;-67
2023/01/11 01:38:32;;;;;;;3.60;1.20;;;;;;;5.30;51.08;98863.28;5008886;28;20506;-64
2023/01/11 01:40:57;;;;;;;4.32;1.70;;;;;;;5.31;51.27;98864.94;5023163;28;20080;-64
2023/01/11 01:43:44;;;;;;;4.75;1.50;;;;;;;5.27;51.21;98860.91;5006626;28;20029;-64
2023/01/11 01:46:09;;;;;;;3.90;1.20;;;;;;;5.34;49.87;98862.13;5008889;28;20029;-63
2023/01/11 01:48:36;;;;;;;3.28;1.08;;;;;;;5.40;49.70;98855.72;5009616;28;20032;-66
2023/01/11 01:51:02;;;;;;;3.13;1.20;;;;;;;5.17;48.81;98823.81;5025552;28;20032;-63
2023/01/11 01:53:34;;;;;;;4.50;1.40;;;;;;;5.41;49.18;98872.06;5024695;28;20029;-63
2023/01/11 01:56:00;;;;;;;3.05;1.20;;;;;;;5.50;49.33;98867.06;5027235;28;20069;-64
2023/01/11 01:58:30;;;;;;;3.63;1.30;;;;;;;5.39;49.66;98856.69;5043902;28;20075;-62
2023/01/11 02:00:56;;;;;;;3.63;1.02;;;;;;;5.44;49.36;98869.25;5019982;28;20037;-63
2023/01/11 02:03:24;;;;;;;3.90;1.33;;;;;;;5.40;49.35;98866.03;5038254;28;20702;-63
2023/01/11 02:05:51;;;;;;;3.22;1.20;;;;;;;5.18;49.32;98821.13;5045438;28;20028;-62
2023/01/11 02:08:23;;;;;;;3.78;1.20;;;;;;;5.50;48.77;98872.22;5029080;28;20025;-63
2023/01/11 02:10:50;;;;;;;3.33;1.08;;;;;;;5.43;48.94;98868.44;5039274;28;20103;-63
2023/01/11 02:13:16;;;;;;;3.30;1.10;;;;;;;5.51;48.98;98866.16;5040486;28;20029;-62
2023/01/11 02:15:41;;;;;;;4.30;1.20;;;;;;;5.52;47.86;98869.56;5044146;28;20722;-62
2023/01/11 02:18:11;;;;;;;2.88;0.90;;;;;;;5.55;47.67;98866.78;5026555;28;20029;-64
2023/01/11 02:20:55;;;;;;;3.47;1.15;;;;;;;5.42;48.85;98859.06;5019571;28;20036;-63
2023/01/11 02:23:39;;;;;;;4.85;1.30;;;;;;;5.24;48.24;98819.88;5061747;28;20043;-64
2023/01/11 02:26:07;;;;;;;3.60;1.10;;;;;;;5.34;49.06;98853.59;5055944;28;20037;-63
2023/01/11 02:28:32;;;;;;;2.83;1.02;;;;;;;5.43;49.42;98868.44;5063911;28;20024;-63
2023/01/11 02:31:18;;;;;;;3.78;1.13;;;;;;;5.35;50.41;98868.97;5059455;28;20087;-62
2023/01/11 02:33:44;;;;;;;3.47;1.10;;;;;;;5.33;50.44;98862.25;5041970;28;20355;-64
2023/01/11 02:36:18;;;;;;;4.00;1.17;;;;;;;5.46;49.02;98863.06;5036466;28;20033;-67
2023/01/11 02:39:16;;;;;;;3.40;1.15;;;;;;;5.45;49.74;98863.97;5042870;28;20050;-61
2023/01/11 02:45:09;;;;;;;3.13;0.90;;;;;;;5.32;51.59;98845.13;5059793;28;20637;-63
2023/01/11 02:47:49;;;;;;;2.80;1.00;;;;;;;5.23;51.63;98838.03;5055096;28;20068;-64
2023/01/11 02:50:28;;;;;;;3.90;1.25;;;;;;;5.23;52.38;98853.50;5060017;28;20119;-64
2023/01/11 02:53:13;;;;;;;4.60;1.30;;;;;;;5.29;52.05;98837.59;5026103;28;20043;-64
2023/01/11 02:55:42;;;;;;;3.15;1.00;;;;;;;5.12;50.55;98794.94;5053006;28;20039;-64
2023/01/11 02:58:09;;;;;;;3.13;0.80;;;;;;;5.45;47.51;98843.34;5045423;28;20033;-61
2023/01/11 03:00:39;;;;;;;3.67;1.00;;;;;;;5.55;46.58;98839.22;5039308;28;20029;-64
2023/01/11 03:03:29;;;;;;;2.85;0.80;;;;;;;5.54;46.62;98831.56;5039967;28;20490;-64
2023/01/11 03:06:05;;;;;;;4.43;0.90;;;;;;;5.62;45.58;98846.50;5026658;28;20064;-64
2023/01/11 03:09:07;;;;;;;2.88;1.00;;;;;;;5.59;46.71;98842.41;5041599;28;20372;-63
2023/01/11 03:15:07;;;;;;;3.38;1.20;;;;;;;5.53;51.82;98835.91;5061117;28;20690;-66
2023/01/11 03:17:44;;;;;;;3.33;1.10;;;;;;;5.44;52.77;98833.97;4995596;28;20045;-66
2023/01/11 03:20:30;;;;;;;3.28;0.98;;;;;;;5.54;47.29;98832.38;5041197;28;20061;-64
2023/01/11 03:23:40;;;;;;;3.97;1.00;;;;;;;5.53;50.90;98835.06;5025195;28;20537;-62
2023/01/11 03:26:06;;;;;;;;;;;;;;;5.53;51.99;98838.50;5039756;28;20036;-63
2023/01/11 03:28:37;;;;;;;3.90;1.10;;;;;;;5.46;53.09;98857.06;5040867;28;19916;-64
2023/01/11 03:31:12;;;;;;;3.53;1.00;;;;;;;5.43;54.63;98840.06;5042336;28;20021;-65
2023/01/11 03:33:52;;;;;;;3.80;1.20;;;;;;;5.08;57.53;98780.63;5037938;28;20151;-63
2023/01/11 03:36:34;;;;;;;3.00;0.90;;;;;;;5.28;55.51;98817.94;5024667;28;20028;-63
2023/01/11 03:39:04;;;;;;;3.80;1.20;;;;;;;5.19;56.97;98820.19;5036411;28;20105;-64
2023/01/11 03:41:33;;;;;;;3.28;1.00;;;;;;;5.02;58.76;98823.13;5045268;28;20499;-63
2023/01/11 03:44:00;;;;;;;3.00;0.90;;;;;;;4.93;59.41;98821.16;5023429;28;20097;-63
2023/01/11 03:46:33;;;;;;;3.35;1.00;;;;;;;4.97;58.04;98820.84;5023436;28;20016;-63
2023/01/11 03:49:06;;;;;;;2.75;1.00;;;;;;;4.94;59.00;98833.09;5025616;28;20029;-64
2023/01/11 03:51:37;;;;;;;3.92;1.10;;;;;;;4.93;61.25;98823.75;5047321;28;20182;-64
2023/01/11 03:54:05;;;;;;;4.20;1.20;;;;;;;4.92;59.17;98820.31;5028267;28;20033;-63
2023/01/11 03:56:37;;;;;;;3.05;1.00;;;;;;;4.94;59.75;98813.31;5030013;28;20029;-63
2023/01/11 03:59:03;;;;;;;4.18;1.20;;;;;;;4.92;59.92;98819.50;5030073;28;20067;-61
2023/01/11 04:01:28;;;;;;;3.65;1.25;;;;;;;4.65;59.11;98776.63;5031790;28;20057;-64
2023/01/11 04:03:54;;;;;;;3.50;1.13;;;;;;;4.84;56.78;98806.28;5029224;28;20029;-65
2023/01/11 04:06:20;;;;;;;4.35;0.93;;;;;;;4.59;56.51;98771.91;5031188;28;20060;-67
2023/01/11 04:08:46;;;;;;;4.90;0.98;;;;;;;4.91;54.90;98817.84;5027541;28;20270;-63
2023/01/11 04:11:11;;;;;;;2.60;0.82;;;;;;;4.95;55.22;98819.31;5028339;28;20513;-66
2023/01/11 04:13:37;;;;;;;3.13;1.00;;;;;;;4.81;54.73;98810.72;5027289;28;20029;-62
2023/01/11 04:16:02;;;;;;;2.25;0.90;;;;;;;4.82;54.81;98809.00;5044767;28;20027;-63
2023/01/11 04:18:28;;;;;;;3.22;0.85;;;;;;;4.78;55.14;98803.22;5047395;28;20040;-66
2023/01/11 04:20:53;;;;;;;3.22;1.00;;;;;;;4.75;55.26;98805.19;5043370;28;20119;-64
2023/01/11 04:23:19;;;;;;;4.60;1.00;;;;;;;4.51;55.37;98763.84;5047163;28;20506;-63
2023/01/11 04:25:45;;;;;;;3.28;1.00;;;;;;;4.38;55.32;98758.69;5047917;28;20430;-63
2023/01/11 04:28:11;;;;;;;3.53;0.88;;;;;;;4.75;55.55;98813.72;5028840;28;20104;-64
2023/01/11 04:30:37;;;;;;;1.83;0.70;;;;;;;4.79;55.66;98810.00;5027811;28;20115;-67
2023/01/11 04:33:02;;;;;;;3.95;1.10;;;;;;;4.71;55.31;98794.25;5044390;28;20563;-64
2023/01/11 04:35:28;;;;;;;3.42;1.10;;;;;;;4.37;55.84;98751.91;5046730;28;20032;-64
2023/01/11 04:37:55;;;;;;;5.00;0.90;;;;;;;4.66;54.84;98786.00;5025376;28;20020;-62
2023/01/11 04:40:20;;;;;;;3.33;0.93;;;;;;;4.83;54.23;98787.44;5025115;28;20107;-63
2023/01/11 04:42:46;;;;;;;3.63;0.90;;;;;;;4.82;53.86;98783.25;5026591;28;20131;-63
2023/01/11 04:45:12;;;;;;;2.88;0.90;;;;;;;4.86;54.59;98782.09;5032281;28;20029;-64
2023/01/11 04:47:37;;;;;;;4.22;1.13;;;;;;;4.78;54.47;98763.75;5046863;28;20735;-64
2023/01/11 04:50:03;;;;;;;2.65;0.80;;;;;;;4.85;55.03;98770.13;5030957;28;20119;-64
2023/01/11 04:52:29;;;;;;;3.50;1.00;;;;;;;4.84;55.05;98773.66;5027763;28;20612;-63
2023/01/11 04:54:54;;;;;;;4.20;1.25;;;;;;;4.63;55.01;98743.25;5024146;28;20028;-63
2023/01/11 04:57:20;;;;;;;3.10;0.93;;;;;;;4.69;55.68;98780.66;5046085;28;20052;-65
2023/01/11 04:59:46;;;;;;;1.90;0.70;;;;;;;4.78;55.77;98779.19;5025774;28;20074;-63
2023/01/11 05:02:13;;;;;;;3.22;1.02;;;;;;;4.73;55.63;98787.25;5030844;28;20039;-64
2023/01/11 05:04:39;;;;;;;3.22;0.90;;;;;;;4.71;56.53;98790.84;5039136;28;20872;-64
2023/01/11 05:07:06;;;;;;;3.63;1.10;;;;;;;4.66;56.42;98783.44;5026817;28;20024;-63
2023/01/11 05:09:31;;;;;;;3.35;0.80;;;;;;;4.66;55.91;98786.00;5028889;28;20475;-62
2023/01/11 05:11:57;;;;;;;3.80;1.08;;;;;;;4.59;56.25;98780.44;5035993;28;20033;-64
2023/01/11 05:14:22;;;;;;;3.35;0.85;;;;;;;4.63;56.27;98783.63;5044993;28;20434;-64
2023/01/11 05:16:49;;;;;;;3.60;1.00;;;;;;;4.64;56.20;98787.88;5045468;28;20071;-63
2023/01/11 05:19:15;;;;;;;2.78;0.80;;;;;;;4.66;55.43;98782.63;5050501;28;20092;-64
2023/01/11 05:21:40;;;;;;;2.53;0.80;;;;;;;4.61;55.78;98785.50;5030360;28;20518;-66
2023/01/11 05:24:11;;;;;;;3.05;0.90;;;;;;;4.67;55.93;98789.41;5063417;28;20032;-63
2023/01/11 05:26:39;;;;;;;3.10;1.00;;;;;;;4.66;55.83;98795.50;5026601;28;20484;-64
2023/01/11 05:29:07;;;;;;;3.17;0.98;;;;;;;4.66;55.25;98804.03;5045859;28;20052;-63
2023/01/11 05:31:34;;;;;;;1.85;0.80;;;;;;;4.82;55.55;98788.38;5030451;28;20505;-64
2023/01/11 05:34:00;;;;;;;2.40;0.82;;;;;;;4.74;55.95;98777.75;5046271;28;20479;-63
2023/01/11 05:36:27;;;;;;;2.92;0.88;;;;;;;4.77;57.63;98780.97;5026358;28;20030;-64
2023/01/11 05:38:54;;;;;;;2.90;0.82;;;;;;;4.72;57.46;98774.47;5029647;28;20020;-63
2023/01/11 05:41:21;;;;;;;3.38;1.10;;;;;;;4.70;56.96;98782.28;5030665;28;20116;-64
2023/01/11 05:46:33;;;;;;;3.13;1.00;;;;;;;4.65;57.23;98781.78;5045359;28;21385;-65
2023/01/11 05:48:59;;;;;;;2.85;0.90;;;;;;;4.68;57.15;98776.44;5029648;28;20521;-65
2023/01/11 05:51:29;;;;;;;4.00;1.10;;;;;;;4.74;56.67;98776.00;5041330;28;20291;-66
2023/01/11 05:53:55;;;;;;;3.50;1.00;;;;;;;4.74;56.25;98780.34;5047438;28;20060;-64
2023/01/11 05:56:21;;;;;;;3.40;1.10;;;;;;;4.68;55.46;98776.44;5028685;28;20523;-63
2023/01/11 05:58:47;;;;;;;3.28;1.00;;;;;;;4.72;55.51;98770.13;5027433;28;20028;-63
2023/01/11 06:01:13;;;;;;;2.97;0.85;;;;;;;4.79;54.07;98786.81;5045067;28;20596;-63
2023/01/11 06:03:39;;;;;;;2.85;0.85;;;;;;;4.67;54.12;98779.91;5025345;28;20140;-64
2023/01/11 06:06:05;;;;;;;3.58;1.00;;;;;;;4.78;53.34;98792.94;5042179;28;20032;-63
2023/01/11 06:08:30;;;;;;;3.13;0.90;;;;;;;4.85;53.05;98798.47;5027449;28;20032;-66
2023/01/11 06:10:56;;;;;;;2.42;0.85;;;;;;;4.94;53.57;98805.56;5041611;28;20052;-66
2023/01/11 06:13:26;;;;;;;2.38;0.85;;;;;;;4.79;54.67;98804.03;5024663;28;20570;-64
2023/01/11 06:16:05;;;;;;;3.13;0.90;;;;;;;4.38;55.22;98759.53;5040290;28;20035;-63
2023/01/11 06:18:33;;;;;;;2.20;0.77;;;;;;;4.47;54.87;98764.97;5044112;28;20186;-63
2023/01/11 06:21:00;;;;;;;3.05;0.95;;;;;;;4.73;55.23;98796.75;5044355;28;20032;-62
2023/01/11 06:23:27;;;;;;;2.28;0.90;;;;;;;4.76;57.26;98802.50;5021624;28;20221;-63
2023/01/11 06:25:53;;;;;;;3.08;1.05;;;;;;;4.70;57.19;98792.59;5043193;28;20024;-63
2023/01/11 06:28:18;;;;;;;3.58;1.00;;;;;;;4.64;56.54;98798.19;5042241;28;20502;-61
2023/01/11 06:30:50;;;;;;;3.58;0.85;;;;;;;4.41;55.86;98750.78;5030364;28;20024;-63
2023/01/11 06:33:16;;;;;;;4.00;1.05;;;;;;;4.68;54.71;98791.88;5027971;28;20055;-63
2023/01/11 06:35:42;;;;;;;6.10;1.40;;;;;;;4.64;54.95;98780.16;5026982;28;20112;-63
2023/01/11 06:38:10;;;;;;;3.60;1.10;;;;;;;4.46;55.08;98746.16;5016152;28;20181;-64
2023/01/11 06:40:37;;;;;;;3.10;1.00;;;;;;;4.77;56.53;98796.41;5023766;28;20078;-63
2023/01/11 06:43:02;;;;;;;2.42;0.80;;;;;;;4.83;54.69;98792.59;5025861;28;20036;-63
2023/01/11 06:45:29;;;;;;;2.78;0.88;;;;;;;4.88;54.63;98795.69;5037730;28;20037;-63
2023/01/11 06:47:56;;;;;;;3.10;0.90;;;;;;;4.77;55.00;98799.00;5040580;28;20029;-63
2023/01/11 06:50:21;;;;;;;2.42;0.90;;;;;;;4.73;57.33;98792.41;5041995;28;20035;-64
2023/01/11 06:52:58;;;;;;;2.83;0.95;;;;;;;4.76;59.78;98792.22;5044433;28;20016;-64
2023/01/11 06:55:26;;;;;;;3.72;1.30;;;;;;;4.70;61.15;98790.03;5034109;28;20063;-64
2023/01/11 06:57:52;;;;;;;4.15;1.30;;;;;;;4.70;62.17;98794.38;5025377;28;20627;-63
2023/01/11 07:00:18;;;;;;;3.80;1.38;;;;;;;4.60;62.60;98794.97;5027996;28;20130;-67
2023/01/11 07:02:45;;;;;;;4.32;1.45;;;;;;;4.53;63.47;98805.78;5040542;28;20110;-66
2023/01/11 07:05:11;;;;;;;3.25;1.15;;;;;;;4.35;64.07;98775.19;5023034;28;20618;-64
2023/01/11 07:07:38;;;;;;;3.97;1.50;;;;;;;4.47;63.93;98775.28;5029003;28;20024;-63
2023/01/11 07:10:09;;;;;;;4.22;1.40;;;;;;;4.35;64.29;98751.19;5023560;28;20033;-64
2023/01/11 07:12:35;;;;;;;5.80;1.80;;;;;;;4.75;64.68;98797.47;5039844;28;20021;-63
2023/01/11 07:15:01;;;;;;;10.23;3.45;;;;;;;4.67;64.35;98800.53;5042993;28;20044;-63
2023/01/11 07:17:27;;;;;;;9.55;3.47;;;;;;;4.63;65.55;98804.25;5062698;28;20021;-64
2023/01/11 07:19:52;;;;;;;8.98;4.05;;;;;;;4.65;65.59;98811.88;5029132;28;20029;-66
2023/01/11 07:22:17;;;;;;;8.40;3.25;;;;;;;4.72;65.31;98821.66;5046011;28;20115;-63
2023/01/11 07:24:43;;;;;;;12.63;3.85;;;;;;;4.72;66.90;98820.84;5030194;28;20041;-63
2023/01/11 07:27:08;;;;;;;10.40;3.20;;;;;;;4.65;66.94;98825.56;5032473;28;20639;-64
2023/01/11 07:29:34;;;;;;;7.22;2.85;;;;;;;4.61;68.20;98819.78;5048467;28;20033;-66
2023/01/11 07:32:00;;;;;;;6.95;2.60;;;;;;;4.64;67.38;98831.66;5031997;28;20039;-62
2023/01/11 07:34:27;;;;;;;8.10;2.95;;;;;;;4.56;66.55;98828.75;5031014;28;20106;-62
2023/01/11 07:36:52;;;;;;;11.52;3.72;;;;;;;4.60;68.31;98836.19;5031986;28;20175;-63
2023/01/11 07:39:18;;;;;;;9.65;3.60;;;;;;;4.59;67.42;98834.53;5033107;28;20508;-62
2023/01/11 07:44:27;;;;;;;8.05;2.92;;;;;;;4.60;67.36;98828.47;5064581;28;20047;-64
2023/01/11 07:46:53;;;;;;;9.23;2.85;;;;;;;4.59;68.07;98839.69;5032250;28;20028;-66
2023/01/11 07:49:18;;;;;;;9.27;3.08;;;;;;;4.51;68.90;98836.78;5032051;28;20380;-67
2023/01/11 07:51:44;;;;;;;7.53;3.08;;;;;;;4.35;68.98;98818.13;5048887;28;20060;-61
2023/01/11 07:54:09;;;;;;;7.05;2.72;;;;;;;4.45;68.90;98838.94;5031996;28;20040;-64
2023/01/11 07:56:35;;;;;;;10.52;4.20;;;;;;;4.52;68.87;98853.06;5031063;28;20445;-62
2023/01/11 07:59:00;;;;;;;9.00;2.88;;;;;;;4.48;68.96;98841.31;5048908;28;20390;-64
2023/01/11 08:01:26;;;;;;;8.15;3.03;;;;;;;4.46;70.78;98846.56;5028109;28;20055;-62
2023/01/11 08:03:52;;;;;;;5.97;2.70;;;;;;;4.51;69.59;98859.13;5032100;28;20044;-62
2023/01/11 08:06:17;;;;;;;6.03;2.65;;;;;;;4.52;70.04;98860.78;5031048;28;20024;-66
2023/01/11 08:08:43;;;;;;;7.97;3.53;;;;;;;4.50;69.63;98860.88;5045856;28;20025;-63
2023/01/11 08:16:37;;;;;;;7.25;2.90;;;;;;;4.35;69.47;98874.75;5050073;28;20118;-63
2023/01/11 08:19:03;;;;;;;7.53;3.28;;;;;;;4.48;68.98;98874.78;5027018;28;20086;-63
2023/01/11 08:21:29;;;;;;;11.75;3.78;;;;;;;4.52;69.19;98859.03;5021129;28;20550;-62
2023/01/11 08:23:55;;;;;;;6.78;3.25;;;;;;;4.61;69.48;98873.06;5030828;28;20166;-64
2023/01/11 08:26:22;;;;;;;8.50;3.10;;;;;;;4.55;68.46;98876.88;5024719;28;20024;-63
2023/01/11 08:28:48;;;;;;;8.13;3.33;;;;;;;4.55;69.77;98870.91;5046214;28;20028;-62
2023/01/11 08:31:13;;;;;;;10.05;3.50;;;;;;;4.58;70.62;98878.41;5048708;28;20587;-63
2023/01/11 08:33:39;;;;;;;7.97;3.33;;;;;;;4.60;71.23;98877.41;5046675;28;20435;-65
2023/01/11 08:36:06;;;;;;;6.25;3.13;;;;;;;4.50;69.41;98878.91;5031449;28;20086;-66
2023/01/11 08:38:31;;;;;;;8.60;2.90;;;;;;;4.17;69.12;98835.59;5046535;28;20051;-64
2023/01/11 08:40:57;;;;;;;7.32;3.10;;;;;;;4.39;69.17;98886.50;5028037;28;20028;-63
2023/01/11 08:43:23;;;;;;;6.63;2.95;;;;;;;4.46;71.19;98887.75;5017702;28;20025;-63
2023/01/11 08:45:49;;;;;;;9.13;3.17;;;;;;;4.45;72.10;98885.28;5025698;28;20056;-63
2023/01/11 08:48:15;;;;;;;6.13;2.63;;;;;;;4.40;72.70;98857.28;5033745;28;20478;-68
2023/01/11 08:50:40;;;;;;;6.18;2.92;;;;;;;4.51;73.09;98856.56;5048142;28;20051;-65
2023/01/11 08:53:06;;;;;;;7.05;3.00;;;;;;;4.70;73.74;98887.91;5028789;28;20044;-61
2023/01/11 08:55:31;;;;;;;7.07;2.97;;;;;;;4.59;74.72;98880.88;5045428;28;20032;-64
2023/01/11 08:57:57;;;;;;;5.82;2.60;;;;;;;4.64;76.02;98890.91;5025558;28;20052;-63
2023/01/11 09:00:23;;;;;;;6.50;3.15;;;;;;;4.76;77.46;98896.97;5042267;28;20025;-63
2023/01/11 09:02:48;;;;;;;5.90;2.55;;;;;;;4.68;76.83;98888.94;5047761;28;20032;-64
2023/01/11 09:05:14;;;;;;;6.75;2.78;;;;;;;4.68;77.30;98878.66;5026866;28;20095;-64
2023/01/11 09:07:39;;;;;;;6.65;1.95;;;;;;;4.74;74.76;98881.63;5045249;28;20093;-65
2023/01/11 09:10:05;;;;;;;3.92;1.50;;;;;;;4.84;70.38;98899.06;5030607;28;20111;-63
2023/01/11 09:12:31;;;;;;;3.80;1.30;;;;;;;4.87;71.05;98893.69;5028935;28;20120;-64
2023/01/11 09:14:57;;;;;;;9.80;1.48;;;;;;;4.96;71.58;98898.25;5047340;28;20033;-66
2023/01/11 09:17:23;;;;;;;4.35;1.30;;;;;;;4.85;71.05;98893.81;5045300;28;20128;-63
2023/01/11 09:19:49;;;;;;;3.55;1.20;;;;;;;4.97;68.72;98902.47;5044253;28;20115;-64
2023/01/11 09:22:15;;;;;;;3.72;1.20;;;;;;;5.12;66.93;98901.44;5022024;28;20638;-67
2023/01/11 09:24:40;;;;;;;3.63;1.10;;;;;;;5.16;65.52;98894.34;5026244;28;20367;-64
2023/01/11 09:27:05;;;;;;;3.55;1.40;;;;;;;5.23;66.59;98900.72;5029974;28;20154;-64
2023/01/11 09:29:31;;;;;;;4.05;1.10;;;;;;;5.30;64.48;98906.31;5029037;28;20039;-64
2023/01/11 09:31:56;;;;;;;3.38;1.10;;;;;;;5.06;61.67;98867.53;5044857;28;20056;-64
2023/01/11 09:34:24;;;;;;;3.13;1.15;;;;;;;5.33;62.05;98912.09;5028324;28;20028;-63
2023/01/11 09:36:49;;;;;;;3.67;1.10;;;;;;;5.30;61.53;98911.47;5029309;28;20033;-65
2023/01/11 09:39:19;;;;;;;3.00;0.95;;;;;;;5.25;63.76;98904.03;5046032;28;20032;-64
2023/01/11 09:41:59;;;;;;;3.85;1.33;;;;;;;5.24;64.68;98904.13;5043394;28;20023;-63
2023/01/11 09:44:28;;;;;;;6.10;1.10;;;;;;;5.19;66.34;98899.28;5035561;28;20048;-64
2023/01/11 09:47:03;;;;;;;3.45;1.20;;;;;;;5.29;66.14;98900.31;5025220;28;20044;-64
2023/01/11 09:49:30;;;;;;;3.00;0.95;;;;;;;5.36;66.05;98892.97;5062954;28;20029;-63
2023/01/11 09:52:17;;;;;;;3.65;1.30;;;;;;;5.34;65.87;98900.00;5030522;28;20035;-64
2023/01/11 09:54:44;;;;;;;4.30;1.40;;;;;;;5.39;66.46;98892.78;5027821;28;20035;-63
2023/01/11 09:57:52;;;;;;;4.10;1.33;;;;;;;5.47;66.88;98882.75;5028917;28;20016;-64
2023/01/11 10:00:22;;;;;;;4.28;1.40;;;;;;;5.49;66.98;98873.16;5035305;28;20041;-64
2023/01/11 10:03:15;;;;;;;5.07;1.50;;;;;;;5.51;67.10;98876.47;5044796;28;20056;-63
2023/01/11 10:05:54;;;;;;;8.35;1.52;;;;;;;5.54;66.12;98868.50;5033122;28;20041;-64
2023/01/11 10:08:29;;;;;;;4.45;1.27;;;;;;;5.21;66.73;98796.88;5045396;28;20032;-64
2023/01/11 10:11:06;;;;;;;3.83;1.17;;;;;;;5.62;67.96;98857.66;5039970;28;20043;-63
2023/01/11 10:13:53;;;;;;;3.38;1.20;;;;;;;5.68;68.13;98861.59;5060364;28;20120;-67
2023/01/11 10:16:37;;;;;;;3.97;1.33;;;;;;;5.76;68.81;98857.50;5039310;28;20035;-67
2023/01/11 10:19:13;;;;;;;4.13;1.25;;;;;;;5.76;68.40;98856.69;5026928;28;20422;-67
2023/01/11 10:22:07;;;;;;;3.67;1.40;;;;;;;5.78;67.61;98867.72;5036020;28;20039;-65
2023/01/11 10:24:40;;;;;;;3.72;1.23;;;;;;;5.67;66.97;98872.81;5010372;28;20044;-65
2023/01/11 10:27:11;;;;;;;4.13;1.30;;;;;;;5.55;68.64;98875.31;5045637;28;20148;-65
2023/01/11 10:41:32;;;;;;;3.45;1.30;;;;;;;5.59;66.56;98894.00;5038901;28;20116;-65
2023/01/11 10:44:29;;;;;;;5.38;1.58;;;;;;;5.48;63.69;98876.69;5021785;28;20040;-64
2023/01/11 10:46:56;;;;;;;4.00;1.15;;;;;;;5.69;62.71;98889.81;5011147;28;20060;-64
2023/01/11 10:49:46;;;;;;;3.30;1.17;;;;;;;5.73;65.61;98869.78;5036343;28;20587;-66
2023/01/11 10:52:40;;;;;;;4.10;1.30;;;;;;;5.72;69.23;98865.59;5047037;28;20043;-66
2023/01/11 10:55:26;;;;;;;5.22;1.83;;;;;;;5.62;70.07;98880.88;5014292;28;20091;-65
2023/01/11 10:58:05;;;;;;;5.55;1.90;;;;;;;5.68;68.81;98861.59;5027972;28;20104;-66
2023/01/11 11:00:32;;;;;;;5.10;1.42;;;;;;;5.75;70.29;98863.63;5013048;28;20033;-66
2023/01/11 11:03:20;;;;;;;4.43;1.45;;;;;;;5.89;71.38;98854.06;5011622;28;20029;-64
2023/01/11 11:05:52;;;;;;;3.90;1.40;;;;;;;5.54;69.39;98803.19;5010216;28;20127;-66
2023/01/11 11:08:25;;;;;;;4.50;1.85;;;;;;;5.80;69.41;98834.88;5011355;28;20036;-64
2023/01/11 11:11:00;;;;;;;5.63;1.73;;;;;;;5.88;69.76;98822.28;4998909;28;20039;-63
2023/01/11 11:13:38;;;;;;;4.68;1.38;;;;;;;5.94;68.46;98832.16;4997729;28;20030;-64
2023/01/11 11:16:22;;;;;;;5.28;1.30;;;;;;;5.88;67.26;98816.31;5031660;28;20036;-65
2023/01/11 11:18:54;;;;;;;4.63;1.40;;;;;;;5.90;67.97;98815.25;5028576;28;20026;-67
2023/01/11 11:21:29;;;;;;;3.80;1.33;;;;;;;5.99;66.08;98805.22;4992491;28;20071;-64
2023/01/11 11:24:00;;;;;;;4.03;1.33;;;;;;;6.09;64.91;98816.53;5012039;28;20139;-62
2023/01/11 11:26:37;;;;;;;3.90;1.40;;;;;;;6.14;65.67;98802.34;5014967;28;20036;-65
2023/01/11 11:29:05;;;;;;;3.92;1.38;;;;;;;6.22;64.41;98795.81;5017807;28;20040;-66
2023/01/11 11:31:31;;;;;;;4.68;1.55;;;;;;;6.42;63.93;98802.09;5011724;28;20020;-65
2023/01/11 11:34:05;;;;;;;3.70;1.38;;;;;;;6.44;63.94;98800.22;4991606;28;20040;-65
2023/01/11 11:36:41;;;;;;;3.80;1.30;;;;;;;6.49;64.18;98803.28;4995437;28;20040;-66
2023/01/11 11:39:24;;;;;;;5.93;1.70;;;;;;;6.31;64.05;98754.63;5012950;28;20025;-65
2023/01/11 11:41:51;;;;;;;6.78;1.40;;;;;;;6.69;63.88;98810.34;5016383;28;20102;-65
2023/01/11 11:44:21;;;;;;;4.18;1.25;;;;;;;6.58;61.96;98812.94;5028664;28;20040;-65
2023/01/11 11:47:04;;;;;;;3.95;1.40;;;;;;;6.38;63.41;98805.84;5012293;28;20029;-64
2023/01/11 11:49:31;;;;;;;4.10;1.60;;;;;;;6.42;62.70;98812.41;5029118;28;20470;-64
2023/01/11 11:51:59;;;;;;;4.13;1.55;;;;;;;6.38;61.59;98801.47;5023505;28;20061;-66
2023/01/11 11:54:36;;;;;;;4.35;1.20;;;;;;;6.32;59.84;98768.38;5001358;28;20461;-63
2023/01/11 11:57:19;;;;;;;4.53;1.40;;;;;;;6.32;59.75;98783.88;5013932;28;20498;-63
2023/01/11 11:59:47;;;;;;;4.47;1.33;;;;;;;6.35;63.08;98784.47;5002917;28;20076;-64
2023/01/11 12:02:25;;;;;;;4.95;1.40;;;;;;;6.34;64.17;98772.47;5023523;28;20112;-65
2023/01/11 12:04:52;;;;;;;4.10;1.50;;;;;;;6.21;64.58;98776.91;5040350;28;20028;-63
2023/01/11 12:07:32;;;;;;;4.50;1.60;;;;;;;6.29;66.70;98764.25;5010225;28;20037;-64
2023/01/11 12:10:05;;;;;;;3.58;1.20;;;;;;;6.27;67.06;98773.06;5022258;28;20020;-63
2023/01/11 12:12:32;;;;;;;3.45;1.33;;;;;;;6.31;65.94;98764.13;5029327;28;20028;-63
2023/01/11 12:15:18;;;;;;;4.70;1.45;;;;;;;6.21;63.27;98761.41;5007441;28;20057;-65
2023/01/11 12:17:44;;;;;;;4.43;1.60;;;;;;;6.28;64.05;98754.88;5024793;28;20028;-64
2023/01/11 12:20:22;;;;;;;4.45;1.15;;;;;;;6.40;61.48;98760.88;5023805;28;20021;-67
2023/01/11 12:23:11;;;;;;;4.63;1.20;;;;;;;6.39;59.34;98768.72;5025000;28;20124;-64
2023/01/11 12:25:48;;;;;;;3.65;1.10;;;;;;;6.32;59.41;98766.59;5021371;28;20037;-66
2023/01/11 12:28:17;;;;;;;3.70;1.35;;;;;;;6.32;59.28;98758.03;5024912;28;20186;-65
2023/01/11 12:31:02;;;;;;;3.97;1.20;;;;;;;6.38;61.45;98747.25;5025624;28;20475;-63
2023/01/11 12:33:46;;;;;;;4.60;1.25;;;;;;;6.33;62.52;98764.84;5025971;28;20037;-65
2023/01/11 12:36:30;;;;;;;4.97;1.35;;;;;;;6.31;62.53;98764.94;5008225;28;20036;-61